Rhenus Constanta — DK8899 — position and weather

sailwx.info

Track history (hours):
 
Tides and Currents Weather Stations Pressure Air Temp Water Temp Dewpoint Dewpoint Depression Visibility Wind Speed Wind Dir Waves Ship Positions

Rhenus Constanta

Last reported at 2018-Jul-17 19:02 UTC. Time now 2018-Jul-21 11:35 UTC.
Position N 44°18' E 028°03'.

Length 175 m; draft 2.7 m.

Type: Ship. MMSI: 211718220.

Date/timePositionNaut miles runAvg speedWind from/ knotsBaromVisibWave heightAir tempDewpointWater temp
2018-Jul-17 19:02N 44°18' E 028°03'1 5.5
2018-Jul-17 18:49N 44°17' E 028°04'2 5.6
2018-Jul-17 18:30N 44°16' E 028°06'3 5.7
2018-Jul-17 18:00N 44°16' E 028°10'3 5.7
2018-Jul-17 17:30N 44°15' E 028°14'3 5.6
2018-Jul-17 17:00N 44°15' E 028°18'3 5.3
2018-Jul-17 16:30N 44°14' E 028°22'3 5.6
2018-Jul-17 15:53N 44°11' E 028°24'7 5.0
2018-Jul-17 14:25N 44°06' E 028°31'2 5.6
2018-Jul-17 14:00N 44°06' E 028°35'2 4.0
2018-Jul-17 13:30N 44°06' E 028°37'0 0.7
2018-Jul-17 13:00N 44°06' E 028°38'0 0.0
2018-Jul-17 12:30N 44°06' E 028°38'0 0.0
2018-Jul-17 12:00N 44°06' E 028°38'0 1.0
2018-Jul-17 11:30N 44°06' E 028°38'1 2.0
2018-Jul-17 11:00N 44°07' E 028°39'0 0.0
2018-Jul-17 10:30N 44°07' E 028°39'0 0.0
2018-Jul-17 10:00N 44°07' E 028°39'0 0.0
2018-Jul-17 09:30N 44°07' E 028°39'0 0.0
2018-Jul-17 09:00N 44°07' E 028°39'0 0.0
2018-Jul-17 08:30N 44°07' E 028°39'0 0.3
2018-Jul-17 08:00N 44°07' E 028°39'0 0.0
2018-Jul-17 07:30N 44°07' E 028°39'0 0.0
2018-Jul-17 07:00N 44°07' E 028°39'0 0.0
2018-Jul-17 06:30N 44°07' E 028°39'0 0.0
2018-Jul-17 06:00N 44°07' E 028°39'0 0.0
2018-Jul-17 05:30N 44°07' E 028°39'0 0.0
2018-Jul-17 05:00N 44°07' E 028°39'0 0.0
2018-Jul-17 04:30N 44°07' E 028°39'0 0.0
2018-Jul-17 04:00N 44°07' E 028°39'0 0.0
2018-Jul-17 03:30N 44°07' E 028°39'0 0.0
2018-Jul-17 03:00N 44°07' E 028°39'0 0.0
2018-Jul-17 02:30N 44°07' E 028°39'0 0.0
2018-Jul-17 02:00N 44°07' E 028°39'0 0.0
2018-Jul-17 01:30N 44°07' E 028°39'0 0.0
2018-Jul-17 01:00N 44°07' E 028°39'0 0.0
2018-Jul-17 00:30N 44°07' E 028°39'0 0.0
2018-Jul-16 23:30N 44°07' E 028°39'0 0.0
2018-Jul-16 23:00N 44°07' E 028°39'0 0.0
2018-Jul-16 22:30N 44°07' E 028°39'1 1.2
2018-Jul-16 22:00N 44°07' E 028°39'0 0.4
2018-Jul-16 21:30N 44°07' E 028°39'1 2.8
2018-Jul-16 21:00N 44°06' E 028°38'1 1.5
2018-Jul-16 20:30N 44°06' E 028°37'2 4.6
2018-Jul-16 20:01N 44°06' E 028°34'2 2.7
2018-Jul-16 19:21N 44°06' E 028°31'5 3.2
2018-Jul-16 17:44N 44°09' E 028°26'1 5.0
2018-Jul-16 17:30N 44°10' E 028°25'2 4.3
2018-Jul-16 17:00N 44°12' E 028°23'2 3.8
2018-Jul-16 16:30N 44°14' E 028°22'2 4.1
2018-Jul-16 16:00N 44°15' E 028°20'2 4.7
2018-Jul-16 15:29N 44°15' E 028°17'2 4.4
2018-Jul-16 15:00N 44°15' E 028°14'3 4.3
2018-Jul-16 14:21N 44°16' E 028°10'2 4.3
2018-Jul-16 13:59N 44°16' E 028°08'  
2018-Jul-12 18:09N 44°31' E 022°12'1 5.6
2018-Jul-12 18:00N 44°30' E 022°12'3 5.1
2018-Jul-12 17:30N 44°28' E 022°09'3 5.3
2018-Jul-12 17:01N 44°29' E 022°06'3 5.5
2018-Jul-12 16:31N 44°32' E 022°04'3 5.4
2018-Jul-12 16:01N 44°34' E 022°02'15 5.3
2018-Jul-12 13:09N 44°40' E 021°42'1 6.1
2018-Jul-12 13:01N 44°40' E 021°41'11 1.7
2018-Jul-12 06:47N 44°46' E 021°29'15 4.9
2018-Jul-12 03:50N 44°44' E 021°08'3 0.9
2018-Jul-12 00:09N 44°43' E 021°04'0 0.0
2018-Jul-12 00:00N 44°43' E 021°04'0 0.0
2018-Jul-11 23:31N 44°43' E 021°04'0 0.0
2018-Jul-11 23:00N 44°43' E 021°04'0 0.0
2018-Jul-11 22:30N 44°43' E 021°04'0 0.0
2018-Jul-11 22:01N 44°43' E 021°04'0 0.3
2018-Jul-11 21:30N 44°43' E 021°04'2 4.8
2018-Jul-11 21:00N 44°43' E 021°01'3 5.8
2018-Jul-11 20:30N 44°42' E 020°57'3 5.9
2018-Jul-11 20:01N 44°40' E 020°54'3 6.1
2018-Jul-11 19:30N 44°39' E 020°49'3 6.3
2018-Jul-11 19:00N 44°40' E 020°45'3 6.0
2018-Jul-11 18:30N 44°42' E 020°42'3 5.9
2018-Jul-11 18:00N 44°44' E 020°40'3 5.7
2018-Jul-11 17:30N 44°47' E 020°38'3 6.1
2018-Jul-11 17:01N 44°50' E 020°39'1 1.7
2018-Jul-11 16:30N 44°51' E 020°38'0 0.0
2018-Jul-11 16:01N 44°51' E 020°38'0 0.8
2018-Jul-11 15:31N 44°51' E 020°39'0 0.8
2018-Jul-11 15:01N 44°51' E 020°38'0 0.7
2018-Jul-11 14:31N 44°51' E 020°38'0 0.8
2018-Jul-11 14:00N 44°50' E 020°38'0 0.8
2018-Jul-11 13:31N 44°51' E 020°38'0 0.2
2018-Jul-11 13:01N 44°51' E 020°39'0 0.0
2018-Jul-11 12:31N 44°51' E 020°39'0 0.0
2018-Jul-11 12:00N 44°51' E 020°39'0 0.4
2018-Jul-11 11:31N 44°51' E 020°39'0 0.0
2018-Jul-11 11:00N 44°51' E 020°39'0 0.3
2018-Jul-11 10:30N 44°51' E 020°39'0 0.2
2018-Jul-11 10:01N 44°51' E 020°39'0 0.0
2018-Jul-11 09:24N 44°51' E 020°39'0 0.0
2018-Jul-11 09:01N 44°51' E 020°39'0 0.1
2018-Jul-11 08:30N 44°51' E 020°39'0 0.2
2018-Jul-11 08:00N 44°51' E 020°38'0 0.0
2018-Jul-11 07:31N 44°51' E 020°38'0 0.0
2018-Jul-11 07:00N 44°51' E 020°38'0 0.1
2018-Jul-11 06:30N 44°51' E 020°39'0 0.0
2018-Jul-11 06:00N 44°51' E 020°39'0 0.0
2018-Jul-11 05:30N 44°51' E 020°39'0 0.0
2018-Jul-11 04:57N 44°51' E 020°39'0 0.0
2018-Jul-11 04:20N 44°51' E 020°39'0 0.0
2018-Jul-11 04:00N 44°51' E 020°39'0 0.0
2018-Jul-11 03:31N 44°51' E 020°39'0 0.0
2018-Jul-11 03:00N 44°51' E 020°39'0 0.0
2018-Jul-11 02:31N 44°51' E 020°39'0 0.0
2018-Jul-11 02:01N 44°51' E 020°39'0 0.0
2018-Jul-11 01:30N 44°51' E 020°39'0 0.0
2018-Jul-11 01:01N 44°51' E 020°39'0 0.0
2018-Jul-11 00:31N 44°51' E 020°39'0 0.0
2018-Jul-11 00:00N 44°51' E 020°39'0 0.0
2018-Jul-10 23:30N 44°51' E 020°39'0 0.0
2018-Jul-10 23:01N 44°51' E 020°39'0 0.0
2018-Jul-10 22:30N 44°51' E 020°39'0 0.0
2018-Jul-10 22:01N 44°51' E 020°39'0 0.0
2018-Jul-10 21:31N 44°51' E 020°39'0 0.0
2018-Jul-10 21:00N 44°51' E 020°39'0 0.0
2018-Jul-10 20:30N 44°51' E 020°39'0 0.0
2018-Jul-10 20:01N 44°51' E 020°39'0 0.0
2018-Jul-10 19:30N 44°51' E 020°39'0 0.0
2018-Jul-10 19:00N 44°51' E 020°39'0 0.0
2018-Jul-10 18:31N 44°51' E 020°39'0 0.0
2018-Jul-10 18:01N 44°51' E 020°39'0 0.0
2018-Jul-10 17:31N 44°51' E 020°39'0 0.0
2018-Jul-10 17:00N 44°51' E 020°39'0 0.0
2018-Jul-10 16:31N 44°51' E 020°39'0 0.0
2018-Jul-10 16:01N 44°51' E 020°39'0 0.0
2018-Jul-10 15:31N 44°51' E 020°39'0 0.0
2018-Jul-10 15:01N 44°51' E 020°39'0 0.0
2018-Jul-10 14:31N 44°51' E 020°38'0 0.0
2018-Jul-10 14:01N 44°51' E 020°38'0 0.0
2018-Jul-10 13:30N 44°51' E 020°38'0 0.0
2018-Jul-10 13:01N 44°51' E 020°38'0 0.0
2018-Jul-10 12:31N 44°51' E 020°38'0 0.0
2018-Jul-10 12:01N 44°51' E 020°38'0 0.3
2018-Jul-10 11:31N 44°51' E 020°39'0 0.0
2018-Jul-10 11:01N 44°51' E 020°39'0 0.0
2018-Jul-10 10:31N 44°51' E 020°39'0 0.3
2018-Jul-10 10:01N 44°51' E 020°39'0 0.0
2018-Jul-10 09:28N 44°51' E 020°39'0 0.0
2018-Jul-10 09:00N 44°51' E 020°39'0 0.0
2018-Jul-10 08:31N 44°51' E 020°39'0 0.0
2018-Jul-10 08:01N 44°51' E 020°39'0 0.0
2018-Jul-10 07:31N 44°51' E 020°39'0 0.0
2018-Jul-10 07:01N 44°51' E 020°39'0 0.0
2018-Jul-10 06:31N 44°51' E 020°39'0 0.1
2018-Jul-10 06:00N 44°51' E 020°38'0 0.0
2018-Jul-10 05:31N 44°51' E 020°38'0 0.0
2018-Jul-10 05:01N 44°51' E 020°38'0 0.0
2018-Jul-10 04:24N 44°51' E 020°38'0 0.0
2018-Jul-10 04:01N 44°51' E 020°38'0 0.0
2018-Jul-10 03:30N 44°51' E 020°38'0 0.0
2018-Jul-10 03:01N 44°51' E 020°38'0 0.0
2018-Jul-10 02:30N 44°51' E 020°38'0 0.0
2018-Jul-10 02:01N 44°51' E 020°38'0 0.0
2018-Jul-10 01:31N 44°51' E 020°38'0 0.0
2018-Jul-10 00:49N 44°51' E 020°38'0 0.0
2018-Jul-10 00:30N 44°51' E 020°38'0 0.0
2018-Jul-10 00:01N 44°51' E 020°38'0 0.0
2018-Jul-09 23:30N 44°51' E 020°38'0 0.0
2018-Jul-09 23:00N 44°51' E 020°38'0 0.0
2018-Jul-09 22:30N 44°51' E 020°38'0 0.0
2018-Jul-09 22:01N 44°51' E 020°38'0 0.0
2018-Jul-09 21:31N 44°51' E 020°38'0 0.0
2018-Jul-09 21:01N 44°51' E 020°38'0 0.0
2018-Jul-09 20:31N 44°51' E 020°38'0 0.0
2018-Jul-09 20:00N 44°51' E 020°38'0 0.0
2018-Jul-09 19:31N 44°51' E 020°38'0 0.0
2018-Jul-09 19:01N 44°51' E 020°38'0 0.0
2018-Jul-09 18:31N 44°51' E 020°38'0 0.0
2018-Jul-09 18:01N 44°51' E 020°38'0 0.0
2018-Jul-09 17:31N 44°51' E 020°38'0 0.0
2018-Jul-09 17:01N 44°51' E 020°38'0 0.0
2018-Jul-09 16:31N 44°51' E 020°38'0 0.0
2018-Jul-09 16:01N 44°51' E 020°38'0 0.0
2018-Jul-09 15:30N 44°51' E 020°38'0 0.0
2018-Jul-09 15:01N 44°51' E 020°38'0 0.0
2018-Jul-09 14:31N 44°51' E 020°38'0 0.0
2018-Jul-09 14:01N 44°51' E 020°38'0 0.1
2018-Jul-09 13:31N 44°51' E 020°39'0 0.4
2018-Jul-09 13:00N 44°51' E 020°38'0 0.4
2018-Jul-09 12:31N 44°51' E 020°38'0 0.0
2018-Jul-09 12:01N 44°51' E 020°39'0 0.1
2018-Jul-09 11:30N 44°51' E 020°39'0 0.0
2018-Jul-09 11:01N 44°51' E 020°39'0 0.1
2018-Jul-09 10:31N 44°51' E 020°38'0 0.0
2018-Jul-09 10:01N 44°51' E 020°38'0 0.0
2018-Jul-09 09:30N 44°51' E 020°38'0 0.0
2018-Jul-09 09:01N 44°51' E 020°39'0 0.0
2018-Jul-09 08:31N 44°51' E 020°39'0 0.0
2018-Jul-09 08:01N 44°51' E 020°39'0 0.0
2018-Jul-09 07:30N 44°51' E 020°39'0 0.0
2018-Jul-09 07:01N 44°51' E 020°38'0 0.0
2018-Jul-09 06:28N 44°51' E 020°38'0 0.0
2018-Jul-09 06:01N 44°51' E 020°38'0 0.0
2018-Jul-09 05:31N 44°51' E 020°38'0 0.0
2018-Jul-09 05:01N 44°51' E 020°38'0 0.0
2018-Jul-09 04:28N 44°51' E 020°38'0 0.0
2018-Jul-09 04:00N 44°51' E 020°38'0 0.0
2018-Jul-09 03:30N 44°51' E 020°38'0 0.0
2018-Jul-09 03:01N 44°51' E 020°38'0 0.0
2018-Jul-09 02:31N 44°51' E 020°38'0 0.0
2018-Jul-09 01:46N 44°51' E 020°38'0 0.0
2018-Jul-09 01:31N 44°51' E 020°38'0 0.0
2018-Jul-09 01:01N 44°51' E 020°38'0 0.0
2018-Jul-09 00:30N 44°51' E 020°38'0 0.0
2018-Jul-09 00:01N 44°51' E 020°38'0 0.0
2018-Jul-08 23:31N 44°51' E 020°38'0 0.0
2018-Jul-08 23:00N 44°51' E 020°38'0 0.0
2018-Jul-08 22:31N 44°51' E 020°38'0 0.0
2018-Jul-08 22:01N 44°51' E 020°38'0 0.0
2018-Jul-08 21:31N 44°51' E 020°38'0 0.0
2018-Jul-08 21:01N 44°51' E 020°38'0 0.0
2018-Jul-08 20:30N 44°51' E 020°38'0 0.0
2018-Jul-08 20:01N 44°51' E 020°38'0 0.0
2018-Jul-08 19:31N 44°51' E 020°38'0 0.0
2018-Jul-08 19:00N 44°51' E 020°38'0 0.0
2018-Jul-08 18:31N 44°51' E 020°38'0 0.0
2018-Jul-08 18:01N 44°51' E 020°38'0 0.0
2018-Jul-08 17:31N 44°51' E 020°38'0 0.0
2018-Jul-08 17:01N 44°51' E 020°38'0 0.0
2018-Jul-08 16:31N 44°51' E 020°39'0 0.0
2018-Jul-08 16:00N 44°51' E 020°38'0 0.0
2018-Jul-08 15:31N 44°51' E 020°38'0 0.0
2018-Jul-08 15:01N 44°51' E 020°38'0 0.0
2018-Jul-08 14:31N 44°51' E 020°38'0 0.0
2018-Jul-08 13:46N 44°51' E 020°38'0 0.0
2018-Jul-08 13:31N 44°51' E 020°38'0 0.0
2018-Jul-08 13:00N 44°51' E 020°38'0 0.0
2018-Jul-08 12:31N 44°51' E 020°38'0 0.0
2018-Jul-08 12:00N 44°51' E 020°38'0 0.1
2018-Jul-08 11:29N 44°51' E 020°39'0 0.1
2018-Jul-08 11:01N 44°51' E 020°38'0 0.1
2018-Jul-08 10:31N 44°51' E 020°39'0 0.1
2018-Jul-08 10:01N 44°51' E 020°39'0 0.1
2018-Jul-08 09:31N 44°51' E 020°39'0 0.2
2018-Jul-08 09:01N 44°51' E 020°38'0 0.0
2018-Jul-08 08:30N 44°51' E 020°38'0 0.0
2018-Jul-08 08:00N 44°51' E 020°38'0 0.2
2018-Jul-08 07:31N 44°51' E 020°39'0 0.0
2018-Jul-08 07:00N 44°51' E 020°39'0 0.0
2018-Jul-08 06:31N 44°51' E 020°39'0 0.2
2018-Jul-08 05:52N 44°51' E 020°39'0 0.4
2018-Jul-08 05:30N 44°51' E 020°38'0 0.0
2018-Jul-08 05:01N 44°51' E 020°38'0 0.0
2018-Jul-08 04:31N 44°51' E 020°38'0 0.0
2018-Jul-08 04:01N 44°51' E 020°38'0 0.0
2018-Jul-08 03:31N 44°51' E 020°38'0 0.0
2018-Jul-08 03:01N 44°51' E 020°38'0 0.0
2018-Jul-08 02:28N 44°51' E 020°38'0 0.0
2018-Jul-08 01:52N 44°51' E 020°38'0 0.0
2018-Jul-08 01:29N 44°51' E 020°38'0 0.0
2018-Jul-08 01:00N 44°51' E 020°38'0 0.0
2018-Jul-08 00:29N 44°51' E 020°38'0 0.0
2018-Jul-08 00:00N 44°51' E 020°38'0 0.0
2018-Jul-07 23:31N 44°51' E 020°38'0 0.0
2018-Jul-07 23:01N 44°51' E 020°38'0 0.0
2018-Jul-07 22:31N 44°51' E 020°38'0 0.0
2018-Jul-07 22:01N 44°51' E 020°38'0 0.0
2018-Jul-07 21:31N 44°51' E 020°38'0 0.0
2018-Jul-07 21:01N 44°51' E 020°38'0 0.0
2018-Jul-07 20:31N 44°51' E 020°38'0 0.0
2018-Jul-07 20:01N 44°51' E 020°38'0 0.0
2018-Jul-07 19:31N 44°51' E 020°38'  
Track history (hours):
 
Tides and Currents Weather Stations Pressure Air Temp Water Temp Dewpoint Dewpoint Depression Visibility Wind Speed Wind Dir Waves Ship Positions

Rhenus Constanta

Last reported at 2018-Jul-17 19:02 UTC. Time now 2018-Jul-21 11:35 UTC.
Position N 44°18' E 028°03'.

Length 175 m; draft 2.7 m.

Type: Ship. MMSI: 211718220.

Date/timePositionNaut miles runAvg speedWind from/ knotsBaromVisibWave heightAir tempDewpointWater temp
2018-Jul-17 19:02N 44°18' E 028°03'1 5.5
2018-Jul-17 18:49N 44°17' E 028°04'2 5.6
2018-Jul-17 18:30N 44°16' E 028°06'3 5.7
2018-Jul-17 18:00N 44°16' E 028°10'3 5.7
2018-Jul-17 17:30N 44°15' E 028°14'3 5.6
2018-Jul-17 17:00N 44°15' E 028°18'3 5.3
2018-Jul-17 16:30N 44°14' E 028°22'3 5.6
2018-Jul-17 15:53N 44°11' E 028°24'7 5.0
2018-Jul-17 14:25N 44°06' E 028°31'2 5.6
2018-Jul-17 14:00N 44°06' E 028°35'2 4.0
2018-Jul-17 13:30N 44°06' E 028°37'0 0.7
2018-Jul-17 13:00N 44°06' E 028°38'0 0.0
2018-Jul-17 12:30N 44°06' E 028°38'0 0.0
2018-Jul-17 12:00N 44°06' E 028°38'0 1.0
2018-Jul-17 11:30N 44°06' E 028°38'1 2.0
2018-Jul-17 11:00N 44°07' E 028°39'0 0.0
2018-Jul-17 10:30N 44°07' E 028°39'0 0.0
2018-Jul-17 10:00N 44°07' E 028°39'0 0.0
2018-Jul-17 09:30N 44°07' E 028°39'0 0.0
2018-Jul-17 09:00N 44°07' E 028°39'0 0.0
2018-Jul-17 08:30N 44°07' E 028°39'0 0.3
2018-Jul-17 08:00N 44°07' E 028°39'0 0.0
2018-Jul-17 07:30N 44°07' E 028°39'0 0.0
2018-Jul-17 07:00N 44°07' E 028°39'0 0.0
2018-Jul-17 06:30N 44°07' E 028°39'0 0.0
2018-Jul-17 06:00N 44°07' E 028°39'0 0.0
2018-Jul-17 05:30N 44°07' E 028°39'0 0.0
2018-Jul-17 05:00N 44°07' E 028°39'0 0.0
2018-Jul-17 04:30N 44°07' E 028°39'0 0.0
2018-Jul-17 04:00N 44°07' E 028°39'0 0.0
2018-Jul-17 03:30N 44°07' E 028°39'0 0.0
2018-Jul-17 03:00N 44°07' E 028°39'0 0.0
2018-Jul-17 02:30N 44°07' E 028°39'0 0.0
2018-Jul-17 02:00N 44°07' E 028°39'0 0.0
2018-Jul-17 01:30N 44°07' E 028°39'0 0.0
2018-Jul-17 01:00N 44°07' E 028°39'0 0.0
2018-Jul-17 00:30N 44°07' E 028°39'0 0.0
2018-Jul-16 23:30N 44°07' E 028°39'0 0.0
2018-Jul-16 23:00N 44°07' E 028°39'0 0.0
2018-Jul-16 22:30N 44°07' E 028°39'1 1.2
2018-Jul-16 22:00N 44°07' E 028°39'0 0.4
2018-Jul-16 21:30N 44°07' E 028°39'1 2.8
2018-Jul-16 21:00N 44°06' E 028°38'1 1.5
2018-Jul-16 20:30N 44°06' E 028°37'2 4.6
2018-Jul-16 20:01N 44°06' E 028°34'2 2.7
2018-Jul-16 19:21N 44°06' E 028°31'5 3.2
2018-Jul-16 17:44N 44°09' E 028°26'1 5.0
2018-Jul-16 17:30N 44°10' E 028°25'2 4.3
2018-Jul-16 17:00N 44°12' E 028°23'2 3.8
2018-Jul-16 16:30N 44°14' E 028°22'2 4.1
2018-Jul-16 16:00N 44°15' E 028°20'2 4.7
2018-Jul-16 15:29N 44°15' E 028°17'2 4.4
2018-Jul-16 15:00N 44°15' E 028°14'3 4.3
2018-Jul-16 14:21N 44°16' E 028°10'2 4.3
2018-Jul-16 13:59N 44°16' E 028°08'  
2018-Jul-12 18:09N 44°31' E 022°12'1 5.6
2018-Jul-12 18:00N 44°30' E 022°12'3 5.1
2018-Jul-12 17:30N 44°28' E 022°09'3 5.3
2018-Jul-12 17:01N 44°29' E 022°06'3 5.5
2018-Jul-12 16:31N 44°32' E 022°04'3 5.4
2018-Jul-12 16:01N 44°34' E 022°02'15 5.3
2018-Jul-12 13:09N 44°40' E 021°42'1 6.1
2018-Jul-12 13:01N 44°40' E 021°41'11 1.7
2018-Jul-12 06:47N 44°46' E 021°29'15 4.9
2018-Jul-12 03:50N 44°44' E 021°08'3 0.9
2018-Jul-12 00:09N 44°43' E 021°04'0 0.0
2018-Jul-12 00:00N 44°43' E 021°04'0 0.0
2018-Jul-11 23:31N 44°43' E 021°04'0 0.0
2018-Jul-11 23:00N 44°43' E 021°04'0 0.0
2018-Jul-11 22:30N 44°43' E 021°04'0 0.0
2018-Jul-11 22:01N 44°43' E 021°04'0 0.3
2018-Jul-11 21:30N 44°43' E 021°04'2 4.8
2018-Jul-11 21:00N 44°43' E 021°01'3 5.8
2018-Jul-11 20:30N 44°42' E 020°57'3 5.9
2018-Jul-11 20:01N 44°40' E 020°54'3 6.1
2018-Jul-11 19:30N 44°39' E 020°49'3 6.3
2018-Jul-11 19:00N 44°40' E 020°45'3 6.0
2018-Jul-11 18:30N 44°42' E 020°42'3 5.9
2018-Jul-11 18:00N 44°44' E 020°40'3 5.7
2018-Jul-11 17:30N 44°47' E 020°38'3 6.1
2018-Jul-11 17:01N 44°50' E 020°39'1 1.7
2018-Jul-11 16:30N 44°51' E 020°38'0 0.0
2018-Jul-11 16:01N 44°51' E 020°38'0 0.8
2018-Jul-11 15:31N 44°51' E 020°39'0 0.8
2018-Jul-11 15:01N 44°51' E 020°38'0 0.7
2018-Jul-11 14:31N 44°51' E 020°38'0 0.8
2018-Jul-11 14:00N 44°50' E 020°38'0 0.8
2018-Jul-11 13:31N 44°51' E 020°38'0 0.2
2018-Jul-11 13:01N 44°51' E 020°39'0 0.0
2018-Jul-11 12:31N 44°51' E 020°39'0 0.0
2018-Jul-11 12:00N 44°51' E 020°39'0 0.4
2018-Jul-11 11:31N 44°51' E 020°39'0 0.0
2018-Jul-11 11:00N 44°51' E 020°39'0 0.3
2018-Jul-11 10:30N 44°51' E 020°39'0 0.2
2018-Jul-11 10:01N 44°51' E 020°39'0 0.0
2018-Jul-11 09:24N 44°51' E 020°39'0 0.0
2018-Jul-11 09:01N 44°51' E 020°39'0 0.1
2018-Jul-11 08:30N 44°51' E 020°39'0 0.2
2018-Jul-11 08:00N 44°51' E 020°38'0 0.0
2018-Jul-11 07:31N 44°51' E 020°38'0 0.0
2018-Jul-11 07:00N 44°51' E 020°38'0 0.1
2018-Jul-11 06:30N 44°51' E 020°39'0 0.0
2018-Jul-11 06:00N 44°51' E 020°39'0 0.0
2018-Jul-11 05:30N 44°51' E 020°39'0 0.0
2018-Jul-11 04:57N 44°51' E 020°39'0 0.0
2018-Jul-11 04:20N 44°51' E 020°39'0 0.0
2018-Jul-11 04:00N 44°51' E 020°39'0 0.0
2018-Jul-11 03:31N 44°51' E 020°39'0 0.0
2018-Jul-11 03:00N 44°51' E 020°39'0 0.0
2018-Jul-11 02:31N 44°51' E 020°39'0 0.0
2018-Jul-11 02:01N 44°51' E 020°39'0 0.0
2018-Jul-11 01:30N 44°51' E 020°39'0 0.0
2018-Jul-11 01:01N 44°51' E 020°39'0 0.0
2018-Jul-11 00:31N 44°51' E 020°39'0 0.0
2018-Jul-11 00:00N 44°51' E 020°39'0 0.0
2018-Jul-10 23:30N 44°51' E 020°39'0 0.0
2018-Jul-10 23:01N 44°51' E 020°39'0 0.0
2018-Jul-10 22:30N 44°51' E 020°39'0 0.0
2018-Jul-10 22:01N 44°51' E 020°39'0 0.0
2018-Jul-10 21:31N 44°51' E 020°39'0 0.0
2018-Jul-10 21:00N 44°51' E 020°39'0 0.0
2018-Jul-10 20:30N 44°51' E 020°39'0 0.0
2018-Jul-10 20:01N 44°51' E 020°39'0 0.0
2018-Jul-10 19:30N 44°51' E 020°39'0 0.0
2018-Jul-10 19:00N 44°51' E 020°39'0 0.0
2018-Jul-10 18:31N 44°51' E 020°39'0 0.0
2018-Jul-10 18:01N 44°51' E 020°39'0 0.0
2018-Jul-10 17:31N 44°51' E 020°39'0 0.0
2018-Jul-10 17:00N 44°51' E 020°39'0 0.0
2018-Jul-10 16:31N 44°51' E 020°39'0 0.0
2018-Jul-10 16:01N 44°51' E 020°39'0 0.0
2018-Jul-10 15:31N 44°51' E 020°39'0 0.0
2018-Jul-10 15:01N 44°51' E 020°39'0 0.0
2018-Jul-10 14:31N 44°51' E 020°38'0 0.0
2018-Jul-10 14:01N 44°51' E 020°38'0 0.0
2018-Jul-10 13:30N 44°51' E 020°38'0 0.0
2018-Jul-10 13:01N 44°51' E 020°38'0 0.0
2018-Jul-10 12:31N 44°51' E 020°38'0 0.0
2018-Jul-10 12:01N 44°51' E 020°38'0 0.3
2018-Jul-10 11:31N 44°51' E 020°39'0 0.0
2018-Jul-10 11:01N 44°51' E 020°39'0 0.0
2018-Jul-10 10:31N 44°51' E 020°39'0 0.3
2018-Jul-10 10:01N 44°51' E 020°39'0 0.0
2018-Jul-10 09:28N 44°51' E 020°39'0 0.0
2018-Jul-10 09:00N 44°51' E 020°39'0 0.0
2018-Jul-10 08:31N 44°51' E 020°39'0 0.0
2018-Jul-10 08:01N 44°51' E 020°39'0 0.0
2018-Jul-10 07:31N 44°51' E 020°39'0 0.0
2018-Jul-10 07:01N 44°51' E 020°39'0 0.0
2018-Jul-10 06:31N 44°51' E 020°39'0 0.1
2018-Jul-10 06:00N 44°51' E 020°38'0 0.0
2018-Jul-10 05:31N 44°51' E 020°38'0 0.0
2018-Jul-10 05:01N 44°51' E 020°38'0 0.0
2018-Jul-10 04:24N 44°51' E 020°38'0 0.0
2018-Jul-10 04:01N 44°51' E 020°38'0 0.0
2018-Jul-10 03:30N 44°51' E 020°38'0 0.0
2018-Jul-10 03:01N 44°51' E 020°38'0 0.0
2018-Jul-10 02:30N 44°51' E 020°38'0 0.0
2018-Jul-10 02:01N 44°51' E 020°38'0 0.0
2018-Jul-10 01:31N 44°51' E 020°38'0 0.0
2018-Jul-10 00:49N 44°51' E 020°38'0 0.0
2018-Jul-10 00:30N 44°51' E 020°38'0 0.0
2018-Jul-10 00:01N 44°51' E 020°38'0 0.0
2018-Jul-09 23:30N 44°51' E 020°38'0 0.0
2018-Jul-09 23:00N 44°51' E 020°38'0 0.0
2018-Jul-09 22:30N 44°51' E 020°38'0 0.0
2018-Jul-09 22:01N 44°51' E 020°38'0 0.0
2018-Jul-09 21:31N 44°51' E 020°38'0 0.0
2018-Jul-09 21:01N 44°51' E 020°38'0 0.0
2018-Jul-09 20:31N 44°51' E 020°38'0 0.0
2018-Jul-09 20:00N 44°51' E 020°38'0 0.0
2018-Jul-09 19:31N 44°51' E 020°38'0 0.0
2018-Jul-09 19:01N 44°51' E 020°38'0 0.0
2018-Jul-09 18:31N 44°51' E 020°38'0 0.0
2018-Jul-09 18:01N 44°51' E 020°38'0 0.0
2018-Jul-09 17:31N 44°51' E 020°38'0 0.0
2018-Jul-09 17:01N 44°51' E 020°38'0 0.0
2018-Jul-09 16:31N 44°51' E 020°38'0 0.0
2018-Jul-09 16:01N 44°51' E 020°38'0 0.0
2018-Jul-09 15:30N 44°51' E 020°38'0 0.0
2018-Jul-09 15:01N 44°51' E 020°38'0 0.0
2018-Jul-09 14:31N 44°51' E 020°38'0 0.0
2018-Jul-09 14:01N 44°51' E 020°38'0 0.1
2018-Jul-09 13:31N 44°51' E 020°39'0 0.4
2018-Jul-09 13:00N 44°51' E 020°38'0 0.4
2018-Jul-09 12:31N 44°51' E 020°38'0 0.0
2018-Jul-09 12:01N 44°51' E 020°39'0 0.1
2018-Jul-09 11:30N 44°51' E 020°39'0 0.0
2018-Jul-09 11:01N 44°51' E 020°39'0 0.1
2018-Jul-09 10:31N 44°51' E 020°38'0 0.0
2018-Jul-09 10:01N 44°51' E 020°38'0 0.0
2018-Jul-09 09:30N 44°51' E 020°38'0 0.0
2018-Jul-09 09:01N 44°51' E 020°39'0 0.0
2018-Jul-09 08:31N 44°51' E 020°39'0 0.0
2018-Jul-09 08:01N 44°51' E 020°39'0 0.0
2018-Jul-09 07:30N 44°51' E 020°39'0 0.0
2018-Jul-09 07:01N 44°51' E 020°38'0 0.0
2018-Jul-09 06:28N 44°51' E 020°38'0 0.0
2018-Jul-09 06:01N 44°51' E 020°38'0 0.0
2018-Jul-09 05:31N 44°51' E 020°38'0 0.0
2018-Jul-09 05:01N 44°51' E 020°38'0 0.0
2018-Jul-09 04:28N 44°51' E 020°38'0 0.0
2018-Jul-09 04:00N 44°51' E 020°38'0 0.0
2018-Jul-09 03:30N 44°51' E 020°38'0 0.0
2018-Jul-09 03:01N 44°51' E 020°38'0 0.0
2018-Jul-09 02:31N 44°51' E 020°38'0 0.0
2018-Jul-09 01:46N 44°51' E 020°38'0 0.0
2018-Jul-09 01:31N 44°51' E 020°38'0 0.0
2018-Jul-09 01:01N 44°51' E 020°38'0 0.0
2018-Jul-09 00:30N 44°51' E 020°38'0 0.0
2018-Jul-09 00:01N 44°51' E 020°38'0 0.0
2018-Jul-08 23:31N 44°51' E 020°38'0 0.0
2018-Jul-08 23:00N 44°51' E 020°38'0 0.0
2018-Jul-08 22:31N 44°51' E 020°38'0 0.0
2018-Jul-08 22:01N 44°51' E 020°38'0 0.0
2018-Jul-08 21:31N 44°51' E 020°38'0 0.0
2018-Jul-08 21:01N 44°51' E 020°38'0 0.0
2018-Jul-08 20:30N 44°51' E 020°38'0 0.0
2018-Jul-08 20:01N 44°51' E 020°38'0 0.0
2018-Jul-08 19:31N 44°51' E 020°38'0 0.0
2018-Jul-08 19:00N 44°51' E 020°38'0 0.0
2018-Jul-08 18:31N 44°51' E 020°38'0 0.0
2018-Jul-08 18:01N 44°51' E 020°38'0 0.0
2018-Jul-08 17:31N 44°51' E 020°38'0 0.0
2018-Jul-08 17:01N 44°51' E 020°38'0 0.0
2018-Jul-08 16:31N 44°51' E 020°39'0 0.0
2018-Jul-08 16:00N 44°51' E 020°38'0 0.0
2018-Jul-08 15:31N 44°51' E 020°38'0 0.0
2018-Jul-08 15:01N 44°51' E 020°38'0 0.0
2018-Jul-08 14:31N 44°51' E 020°38'0 0.0
2018-Jul-08 13:46N 44°51' E 020°38'0 0.0
2018-Jul-08 13:31N 44°51' E 020°38'0 0.0
2018-Jul-08 13:00N 44°51' E 020°38'0 0.0
2018-Jul-08 12:31N 44°51' E 020°38'0 0.0
2018-Jul-08 12:00N 44°51' E 020°38'0 0.1
2018-Jul-08 11:29N 44°51' E 020°39'0 0.1
2018-Jul-08 11:01N 44°51' E 020°38'0 0.1
2018-Jul-08 10:31N 44°51' E 020°39'0 0.1
2018-Jul-08 10:01N 44°51' E 020°39'0 0.1
2018-Jul-08 09:31N 44°51' E 020°39'0 0.2
2018-Jul-08 09:01N 44°51' E 020°38'0 0.0
2018-Jul-08 08:30N 44°51' E 020°38'0 0.0
2018-Jul-08 08:00N 44°51' E 020°38'0 0.2
2018-Jul-08 07:31N 44°51' E 020°39'0 0.0
2018-Jul-08 07:00N 44°51' E 020°39'0 0.0
2018-Jul-08 06:31N 44°51' E 020°39'0 0.2
2018-Jul-08 05:52N 44°51' E 020°39'0 0.4
2018-Jul-08 05:30N 44°51' E 020°38'0 0.0
2018-Jul-08 05:01N 44°51' E 020°38'0 0.0
2018-Jul-08 04:31N 44°51' E 020°38'0 0.0
2018-Jul-08 04:01N 44°51' E 020°38'0 0.0
2018-Jul-08 03:31N 44°51' E 020°38'0 0.0
2018-Jul-08 03:01N 44°51' E 020°38'0 0.0
2018-Jul-08 02:28N 44°51' E 020°38'0 0.0
2018-Jul-08 01:52N 44°51' E 020°38'0 0.0
2018-Jul-08 01:29N 44°51' E 020°38'0 0.0
2018-Jul-08 01:00N 44°51' E 020°38'0 0.0
2018-Jul-08 00:29N 44°51' E 020°38'0 0.0
2018-Jul-08 00:00N 44°51' E 020°38'0 0.0
2018-Jul-07 23:31N 44°51' E 020°38'0 0.0
2018-Jul-07 23:01N 44°51' E 020°38'0 0.0
2018-Jul-07 22:31N 44°51' E 020°38'0 0.0
2018-Jul-07 22:01N 44°51' E 020°38'0 0.0
2018-Jul-07 21:31N 44°51' E 020°38'0 0.0
2018-Jul-07 21:01N 44°51' E 020°38'0 0.0
2018-Jul-07 20:31N 44°51' E 020°38'0 0.0
2018-Jul-07 20:01N 44°51' E 020°38'0 0.0
2018-Jul-07 19:31N 44°51' E 020°38'  

Dump ship's entire track history